Nearby METAR Reports

 

KSJC - San Jose, California, USA
Distance from station: NE 9mi, 14km
Updated: Sun, 22-Oct-2017 5:53am CDT
Clear
Clear
 Wind from calm
Wind: Calm
Temperature: 54°F , 12°C
Dew Point: 48°F , 9°C
Humidity: 82%
Barometer: 30.33 inHg , 1027.1 hPa
Clouds: Clear
Visibility: 10 miles , 16 km
2017/10/22 10:53 KSJC 221053Z AUTO 00000KT 10SM CLR 12/09 A3033 RMK AO2 SLP270 T01170089
KNUQ - Moffett Nas/Mtn, California, USA
Distance from station: N 9mi, 14km
Updated: Sun, 22-Oct-2017 5:56am CDT
Clear
Clear
 Wind from calm
Wind: Calm
Temperature: 52°F , 11°C
Dew Point: 48°F , 9°C
Humidity: 88%
Barometer: 30.34 inHg , 1027.4 hPa
Clouds: Clear
Visibility: 10 miles , 16 km
2017/10/22 10:56 KNUQ 221056Z 00000KT 10SM CLR 11/09 A3034 RMK AO2 SLP276 T01110094
 
KPAO - Palo Alto, California, USA
Distance from station: NNW 14mi, 23km
Updated: Sat, 21-Oct-2017 10:47pm CDT
NOT Current
Clear
Clear
 Wind from NW
Wind: NW 9 mph , 15 km/h
Temperature: 57°F , 14°C
Dew Point: 52°F , 11°C
Humidity: 82%
Barometer: 30.29 inHg , 1025.7 hPa
Clouds: Clear
Visibility: 10 miles , 16 km
2017/10/22 03:47 KPAO 220347Z 32008KT 10SM SKC 14/11 A3029 RMK LAST
KRHV - San Jose/Reid, California, USA
Distance from station: ENE 12mi, 19km
Updated: Sat, 21-Oct-2017 11:47pm CDT
NOT Current
Clear
Clear
 Wind from calm
Wind: Calm
Temperature: 57°F , 14°C
Dew Point: 52°F , 11°C
Humidity: 82%
Barometer: 30.35 inHg , 1027.8 hPa
Clouds: Clear
Visibility: 8 miles , 13 km
2017/10/22 04:47 KRHV 220447Z 00000KT 8SM SKC 14/11 A3035 RMK LAST
 
KOAK - Oakland, California, USA
Distance from station: NNW 31mi, 50km
Updated: Sun, 22-Oct-2017 5:53am CDT
Shallow fog, Clear
Shallow fog, Clear
 Wind from calm
Wind: Calm
Temperature: 50°F , 10°C
Dew Point: 50°F , 10°C
Humidity: 100%
Barometer: 30.33 inHg , 1027.1 hPa
Summary: Shallow Fog
Clouds: Clear
Visibility: 10 miles , 16 km
2017/10/22 10:53 KOAK 221053Z 00000KT 10SM MIFG CLR 10/10 A3033 RMK AO2 SLP271 T01000100 $
KSQL - San Carlos Airpo, California, USA
Distance from station: NW 21mi, 34km
Updated: Sun, 22-Oct-2017 6:35am CDT
Clear
Clear
 Wind from calm
Wind: Calm
Temperature: 54°F , 12°C
Dew Point: 50°F , 10°C
Humidity: 88%
Barometer: 30.34 inHg , 1027.4 hPa
Clouds: Clear
Visibility: 10 miles , 16 km
2017/10/22 11:35 KSQL 221135Z AUTO 00000KT 10SM CLR 12/10 A3034 RMK AO2
 
KSFO - San Francisco, California, USA
Distance from station: NW 30mi, 49km
Updated: Sun, 22-Oct-2017 5:56am CDT
Clear
Clear
 Wind from SSE
Wind: SSE 5 mph , 7 km/h
Temperature: 55°F , 13°C
Dew Point: 50°F , 10°C
Humidity: 82%
Barometer: 30.33 inHg , 1027.1 hPa
Clouds: Clear
Visibility: 10 miles , 16 km
2017/10/22 10:56 KSFO 221056Z 16004KT 10SM CLR 13/10 A3033 RMK AO2 SLP269 T01280100
KE16 - San Martin, California, USA
Distance from station: ESE 27mi, 43km
Updated: Sun, 22-Oct-2017 6:15am CDT
Light rain, Few clouds
Light rain, Few clouds
 Wind from calm
Wind: Calm
Temperature: 48°F , 9°C
Dew Point: 46°F , 8°C
Humidity: 94%
Barometer: 30.35 inHg , 1027.8 hPa
Summary: Light rain
Clouds: Few Clouds
Visibility: 10 miles , 16 km
Cloud details: Few Clouds 1700 ft
2017/10/22 11:15 KE16 221115Z AUTO 00000KT 10SM -RA FEW017 09/08 A3035 RMK AO2
 
KWVI - Watsonville, California, USA
Distance from station: SSE 27mi, 44km
Updated: Sun, 22-Oct-2017 5:53am CDT
Clear
Clear
 Wind from NW
Wind: NW 5 mph , 7 km/h
Temperature: 48°F , 9°C
Wind Chill: 46°F , 8°C
Dew Point: 48°F , 9°C
Humidity: 100%
Barometer: 30.32 inHg , 1026.8 hPa
Clouds: Clear
Visibility: 10 miles , 16 km
2017/10/22 10:53 KWVI 221053Z AUTO 32004KT 10SM CLR 09/09 A3032 RMK AO2 SLP266 T00940094 $
KHAF - Half Moon Bay, California, USA
Distance from station: WNW 31mi, 50km
Updated: Sun, 22-Oct-2017 6:15am CDT
Overcast
Overcast
 Wind from calm
Wind: Calm
Temperature: 46°F , 8°C
Dew Point: 45°F , 7°C
Humidity: 93%
Barometer: 30.30 inHg , 1026.1 hPa
Clouds: Overcast
Visibility: 8 miles , 13 km
Cloud details: Overcast 300 ft
2017/10/22 11:15 KHAF 221115Z AUTO 00000KT 8SM OVC003 08/07 A3030 RMK AO2
 
KHWD - Hayward, California, USA
Distance from station: N 28mi, 44km
Updated: Sun, 22-Oct-2017 5:54am CDT
Clear
Clear
 Wind from E
Wind: E 3 mph , 6 km/h
Temperature: 52°F , 11°C
Dew Point: 46°F , 8°C
Humidity: 82%
Barometer: 30.33 inHg , 1027.1 hPa
Clouds: Clear
Visibility: 10 miles , 16 km
2017/10/22 10:54 KHWD 221054Z AUTO 09003KT 10SM CLR 11/08 A3033 RMK AO2 SLP280 T01060078 PNO
KLVK - Livermore, California, USA
Distance from station: NNE 31mi, 51km
Updated: Sun, 22-Oct-2017 5:53am CDT
Clear
Clear
 Wind from calm
Wind: Calm
Temperature: 48°F , 9°C
Dew Point: 45°F , 7°C
Humidity: 87%
Barometer: 30.33 inHg , 1027.1 hPa
Clouds: Clear
Visibility: 10 miles , 16 km
2017/10/22 10:53 KLVK 221053Z AUTO 00000KT 10SM CLR 09/07 A3033 RMK AO2 SLP270 T00890072